Latest Weather Observations for Kurnell

IDN60901

Issued at 6:02 pm EST Saturday 5 September 2026 (issued every 10 minutes, with the page automatically refreshed every 10 minutes)

About weather observations | Map of Sydney area stations | Latest observations for Sydney area | Other Formats
Station Details ID: 066043 Name: KURNELL AWS Lat: -34.00 Lon: 151.21 Height: 4.0 m
Data from the previous 72 hours. | See also: Recent months at Kurnell
Date/Time
EST
Temp
°C
App
Temp
°C
Dew
Point
°C
Rel
Hum
%
Delta-T
°C
Wind Press
QNH
hPa
Press
MSL
hPa
Rain since
9am
mm
Dir  Spd
km/h
Gust
km/h
Spd
kts
Gust
kts
05/06:00pm - - - - - N 33 41 18 22 - - -
05/05:30pm - - - - - NW 32 35 17 19 - - -
05/05:00pm - - - - - WNW 35 44 19 24 - - -
05/04:53pm - - - - - WNW 39 48 21 26 - - -
05/04:34pm - - - - - WNW 69 93 37 50 - - -
05/04:30pm - - - - - WNW 72 93 39 50 - - -
05/04:29pm - - - - - WNW 72 93 39 50 - - -
05/04:00pm - - - - - WNW 57 76 31 41 - - -
05/03:30pm - - - - - WNW 56 70 30 38 - - -
05/03:26pm - - - - - WNW 59 80 32 43 - - -
05/03:16pm - - - - - WNW 57 80 31 43 - - -
05/03:00pm - - - - - WNW 46 59 25 32 - - -
05/02:57pm - - - - - WNW 46 65 25 35 - - -
05/02:43pm - - - - - NW 46 57 25 31 - - -
05/02:30pm - - - - - NNW 39 48 21 26 - - -
05/02:16pm - - - - - NNE 28 48 15 26 - - -
05/02:00pm - - - - - ENE 33 37 18 20 - - -
05/01:30pm - - - - - NE 37 43 20 23 - - -
05/01:00pm - - - - - NE 37 46 20 25 - - -
05/12:30pm - - - - - NNE 37 54 20 29 - - -
05/12:00pm - - - - - N 32 41 17 22 - - -
05/11:30am - - - - - NNE 24 35 13 19 - - -
05/11:00am - - - - - N 17 26 9 14 - - -
05/10:30am - - - - - N 13 17 7 9 - - -
05/10:00am - - - - - N 19 24 10 13 - - -
05/09:30am - - - - - NNW 11 15 6 8 - - -
05/09:00am - - - - - NNW 13 15 7 8 - - -
05/08:30am - - - - - N 22 28 12 15 - - -
05/08:00am - - - - - NNW 17 20 9 11 - - -
05/07:30am - - - - - NNW 19 24 10 13 - - -
05/07:00am - - - - - NNW 17 20 9 11 - - -
05/06:30am - - - - - NNW 19 24 10 13 - - -
05/06:00am - - - - - WNW 13 15 7 8 - - -
05/05:30am - - - - - WNW 9 13 5 7 - - -
05/05:00am - - - - - NW 9 15 5 8 - - -
05/04:30am - - - - - N 9 11 5 6 - - -
05/04:00am - - - - - E 6 7 3 4 - - -
05/03:30am - - - - - E 7 9 4 5 - - -
05/03:00am - - - - - N 7 9 4 5 - - -
05/02:30am - - - - - NE 9 11 5 6 - - -
05/02:00am - - - - - N 9 11 5 6 - - -
05/01:30am - - - - - NNW 7 9 4 5 - - -
05/01:00am - - - - - NNW 15 17 8 9 - - -
05/12:30am - - - - - NNW 13 15 7 8 - - -
05/12:00am - - - - - N 11 13 6 7 - - -
 
Date/Time
EST
Temp
°C
App
Temp
°C
Dew
Point
°C
Rel
Hum
%
Delta-T
°C
Wind Press
QNH
hPa
Press
MSL
hPa
Rain since
9am
mm
Dir  Spd
km/h
Gust
km/h
Spd
kts
Gust
kts
04/11:30pm - - - - - CALM 0 0 0 0 - - -
04/11:00pm - - - - - CALM 0 0 0 0 - - -
04/10:30pm - - - - - NE 7 7 4 4 - - -
04/10:00pm - - - - - NNE 11 13 6 7 - - -
04/09:30pm - - - - - NE 15 20 8 11 - - -
04/09:00pm - - - - - ENE 7 11 4 6 - - -
04/08:30pm - - - - - S 7 11 4 6 - - -
04/08:00pm - - - - - SW 15 19 8 10 - - -
04/07:30pm - - - - - NNE 13 20 7 11 - - -
04/07:00pm - - - - - NE 13 19 7 10 - - -
04/06:30pm - - - - - NE 24 30 13 16 - - -
04/06:00pm - - - - - NE 24 28 13 15 - - -
04/05:30pm - - - - - ENE 20 28 11 15 - - -
04/05:00pm - - - - - ENE 24 28 13 15 - - -
04/04:30pm - - - - - ENE 24 32 13 17 - - -
04/04:00pm - - - - - ENE 28 32 15 17 - - -
04/03:30pm - - - - - E 26 30 14 16 - - -
04/03:00pm - - - - - E 28 32 15 17 - - -
04/02:30pm - - - - - E 22 28 12 15 - - -
04/02:00pm - - - - - E 19 24 10 13 - - -
04/01:30pm - - - - - ESE 13 19 7 10 - - -
04/01:00pm - - - - - E 15 20 8 11 - - -
04/12:30pm - - - - - CALM 0 0 0 0 - - -
04/12:00pm - - - - - ENE 7 9 4 5 - - -
04/11:30am - - - - - NW 7 11 4 6 - - -
04/11:00am - - - - - NW 7 9 4 5 - - -
04/10:30am - - - - - NW 13 17 7 9 - - -
04/10:00am - - - - - NW 15 17 8 9 - - -
04/09:30am - - - - - WNW 22 28 12 15 - - -
04/09:00am - - - - - NW 20 26 11 14 - - -
04/08:30am - - - - - WNW 20 26 11 14 - - -
04/08:00am - - - - - NW 20 24 11 13 - - -
04/07:30am - - - - - NW 17 22 9 12 - - -
04/07:00am - - - - - WNW 15 19 8 10 - - -
04/06:30am - - - - - WNW 13 17 7 9 - - -
04/06:00am - - - - - WNW 19 24 10 13 - - -
04/05:30am - - - - - W 17 20 9 11 - - -
04/05:00am - - - - - W 17 24 9 13 - - -
04/04:30am - - - - - WNW 22 28 12 15 - - -
04/04:00am - - - - - WNW 26 30 14 16 - - -
04/03:30am - - - - - WNW 30 35 16 19 - - -
04/03:00am - - - - - WNW 28 35 15 19 - - -
04/02:30am - - - - - WNW 32 37 17 20 - - -
04/02:00am - - - - - WNW 30 37 16 20 - - -
04/01:30am - - - - - WNW 28 32 15 17 - - -
04/01:00am - - - - - NW 32 35 17 19 - - -
04/12:30am - - - - - NW 28 33 15 18 - - -
04/12:00am - - - - - WNW 32 37 17 20 - - -
 
Date/Time
EST
Temp
°C
App
Temp
°C
Dew
Point
°C
Rel
Hum
%
Delta-T
°C
Wind Press
QNH
hPa
Press
MSL
hPa
Rain since
9am
mm
Dir  Spd
km/h
Gust
km/h
Spd
kts
Gust
kts
03/11:30pm - - - - - WNW 24 30 13 16 - - -
03/11:00pm - - - - - WNW 28 35 15 19 - - -
03/10:30pm - - - - - WSW 28 39 15 21 - - -
03/10:00pm - - - - - W 35 44 19 24 - - -
03/09:30pm - - - - - WSW 24 32 13 17 - - -
03/09:00pm - - - - - WSW 24 30 13 16 - - -
03/08:30pm - - - - - W 32 37 17 20 - - -
03/08:00pm - - - - - W 24 30 13 16 - - -
03/07:30pm - - - - - WSW 22 28 12 15 - - -
03/07:00pm - - - - - W 19 24 10 13 - - -
03/06:30pm - - - - - W 26 35 14 19 - - -
03/06:00pm - - - - - WSW 20 28 11 15 - - -
03/05:30pm - - - - - W 17 22 9 12 - - -
03/05:00pm - - - - - W 30 35 16 19 - - -
03/04:30pm - - - - - WNW 22 28 12 15 - - -
03/04:00pm - - - - - WNW 28 32 15 17 - - -
03/03:30pm - - - - - WNW 28 35 15 19 - - -
03/03:00pm - - - - - WNW 35 41 19 22 - - -
03/02:30pm - - - - - WNW 30 39 16 21 - - -
03/02:00pm - - - - - WNW 32 39 17 21 - - -
03/01:30pm - - - - - WNW 32 41 17 22 - - -
03/01:00pm - - - - - W 39 52 21 28 - - -
03/12:30pm - - - - - WNW 43 52 23 28 - - -
03/12:00pm - - - - - WNW 41 54 22 29 - - -
03/11:30am - - - - - WNW 44 56 24 30 - - -
03/11:06am - - - - - WNW 41 54 22 29 - - -
03/11:00am - - - - - WNW 35 50 19 27 - - -
03/10:51am - - - - - WNW 35 54 19 29 - - -
03/10:50am - - - - - W 37 54 20 29 - - -
03/10:39am - - - - - WNW 33 52 18 28 - - -
03/10:30am - - - - - WNW 33 41 18 22 - - -
03/10:00am - - - - - WNW 24 32 13 17 - - -
03/09:30am - - - - - WNW 19 24 10 13 - - -
03/09:00am - - - - - NW 15 26 8 14 - - -
03/08:30am - - - - - NW 11 13 6 7 - - -
03/08:00am - - - - - N 15 19 8 10 - - -
03/07:30am - - - - - N 7 11 4 6 - - -
03/07:00am - - - - - NNE 13 17 7 9 - - -
03/06:30am - - - - - NE 13 15 7 8 - - -
03/06:00am - - - - - NNE 19 22 10 12 - - -
03/05:34am - - - - - NNE 22 32 12 17 - - -
03/05:30am - - - - - NNE 24 32 13 17 - - -
03/05:24am - - - - - NNE 28 32 15 17 - - -
03/05:00am - - - - - CALM 0 6 0 3 - - -
03/04:30am - - - - - WSW 7 15 4 8 - - -
03/04:00am - - - - - N 11 13 6 7 - - -
03/03:30am - - - - - N 11 17 6 9 - - -
03/03:00am - - - - - NNW 15 17 8 9 - - -
03/02:30am - - - - - SW 6 11 3 6 - - -
03/02:00am - - - - - NW 11 15 6 8 - - -
03/01:30am - - - - - N 13 17 7 9 - - -
03/01:00am - - - - - N 9 11 5 6 - - -
03/12:30am - - - - - N 13 17 7 9 - - -
03/12:00am - - - - - NNE 17 19 9 10 - - -
 
Date/Time
EST
Temp
°C
App
Temp
°C
Dew
Point
°C
Rel
Hum
%
Delta-T
°C
Wind Press
QNH
hPa
Press
MSL
hPa
Rain since
9am
mm
Dir  Spd
km/h
Gust
km/h
Spd
kts
Gust
kts
02/11:30pm - - - - - N 13 15 7 8 - - -
02/11:00pm - - - - - N 9 13 5 7 - - -
02/10:30pm - - - - - N 9 11 5 6 - - -
02/10:00pm - - - - - N 9 11 5 6 - - -
02/09:30pm - - - - - WNW 7 11 4 6 - - -
02/09:00pm - - - - - WNW 13 15 7 8 - - -
02/08:30pm - - - - - WNW 9 11 5 6 - - -
02/08:00pm - - - - - NW 11 15 6 8 - - -
02/07:30pm - - - - - NW 7 9 4 5 - - -
02/07:00pm - - - - - CALM 0 4 0 2 - - -
02/06:30pm - - - - - WNW 7 9 4 5 - - -

Latest Capital City Observations: Canberra | Sydney | Melbourne | Brisbane | Adelaide | Perth | Hobart | Darwin

Other formats

Comma delimited format used in spreadsheet applications
http://www.bom.gov.au/fwo/IDN60901/IDN60901.95756.axf

JavaScript Object Notation format (JSON) in row-major order
http://www.bom.gov.au/fwo/IDN60901/IDN60901.95756.json

Data quality

Most of these data are generated automatically and are frequently updated. Quality checks on data are not normally performed. It is possible for incorrect values to appear. Refer to information at About Latest Weather Observations and please check the disclaimer before using these data.